Atlantic Aquarius — VRDX6 — position and weather

sailwx.info

Track history (hours):
 
Tides and Currents Weather Stations Pressure Air Temp Water Temp Dewpoint Dewpoint Depression Visibility Wind Speed Wind Dir Waves Ship Positions

Atlantic Aquarius

Last reported at 2016-May-27 16:11 UTC. Time now 2016-Jun-01 07:31 UTC.
Position N 09°07' W 079°48'.

Length 183 m; draft 11 m.

Type: Tanker. MMSI: 477071400.

Date/timePositionNaut miles runAvg speedWind from/ knotsBaromVisibWave heightAir tempDewpointWater temp
2016-May-27 16:11N 09°07' W 079°48'5 8.7
2016-May-27 15:34N 09°11' W 079°51'6 5.9
2016-May-27 14:33N 09°16' W 079°55'1 0.8
2016-May-27 13:33N 09°16' W 079°55'0 0.3
2016-May-27 12:33N 09°17' W 079°55'0 0.3
2016-May-27 11:33N 09°17' W 079°55'4 4.5
2016-May-27 10:33N 09°21' W 079°55'5 5.3
2016-May-27 09:33N 09°27' W 079°55'1 1.2
2016-May-27 08:33N 09°27' W 079°56'0 0.0
2016-May-27 07:31N 09°27' W 079°56'0 0.1
2016-May-27 06:29N 09°27' W 079°56'0 0.0
2016-May-27 05:32N 09°27' W 079°56'0 0.1
2016-May-27 04:29N 09°27' W 079°56'0 0.0
2016-May-27 03:31N 09°27' W 079°56'0 0.0
2016-May-27 02:29N 09°27' W 079°56'0 0.0
2016-May-27 01:29N 09°27' W 079°56'0 0.0
2016-May-27 00:31N 09°27' W 079°56'0 0.2
2016-May-26 23:31N 09°28' W 079°56'0 0.4
2016-May-26 22:33N 09°27' W 079°55'3 3.0
2016-May-26 21:33N 09°30' W 079°54'1211.9
2016-May-26 20:33N 09°41' W 079°50'1211.9
2016-May-26 19:33N 09°49' W 079°41'  
2016-May-19 12:31N 17°29' W 066°31'1313.6
2016-May-19 11:32N 17°27' W 066°45'  
Track history (hours):
 
Tides and Currents Weather Stations Pressure Air Temp Water Temp Dewpoint Dewpoint Depression Visibility Wind Speed Wind Dir Waves Ship Positions

Atlantic Aquarius

Last reported at 2016-May-27 16:11 UTC. Time now 2016-Jun-01 07:31 UTC.
Position N 09°07' W 079°48'.

Length 183 m; draft 11 m.

Type: Tanker. MMSI: 477071400.

Date/timePositionNaut miles runAvg speedWind from/ knotsBaromVisibWave heightAir tempDewpointWater temp
2016-May-27 16:11N 09°07' W 079°48'5 8.7
2016-May-27 15:34N 09°11' W 079°51'6 5.9
2016-May-27 14:33N 09°16' W 079°55'1 0.8
2016-May-27 13:33N 09°16' W 079°55'0 0.3
2016-May-27 12:33N 09°17' W 079°55'0 0.3
2016-May-27 11:33N 09°17' W 079°55'4 4.5
2016-May-27 10:33N 09°21' W 079°55'5 5.3
2016-May-27 09:33N 09°27' W 079°55'1 1.2
2016-May-27 08:33N 09°27' W 079°56'0 0.0
2016-May-27 07:31N 09°27' W 079°56'0 0.1
2016-May-27 06:29N 09°27' W 079°56'0 0.0
2016-May-27 05:32N 09°27' W 079°56'0 0.1
2016-May-27 04:29N 09°27' W 079°56'0 0.0
2016-May-27 03:31N 09°27' W 079°56'0 0.0
2016-May-27 02:29N 09°27' W 079°56'0 0.0
2016-May-27 01:29N 09°27' W 079°56'0 0.0
2016-May-27 00:31N 09°27' W 079°56'0 0.2
2016-May-26 23:31N 09°28' W 079°56'0 0.4
2016-May-26 22:33N 09°27' W 079°55'3 3.0
2016-May-26 21:33N 09°30' W 079°54'1211.9
2016-May-26 20:33N 09°41' W 079°50'1211.9
2016-May-26 19:33N 09°49' W 079°41'  
2016-May-19 12:31N 17°29' W 066°31'1313.6
2016-May-19 11:32N 17°27' W 066°45'  

Dump ship's entire track history